Time;durP1;ratioP1;P1;durP2;ratioP2;P2;SDS_P1;SDS_P2;PMS_P1;PMS_P2;Temp;Humidity;BMP_temperature;BMP_pressure;BME280_temperature;BME280_humidity;BME280_pressure;Samples;Min_cycle;Max_cycle;Signal;HPM_P1;HPM_P2
2021/12/25 00:01:14;;;;;;;28.33;14.43;;;;;;;;;;5071744;28;20024;-70
2021/12/25 00:03:40;;;;;;;28.70;12.68;;;;;;;;;;5071154;28;20394;-71
2021/12/25 00:06:07;;;;;;;29.23;13.35;;;;;;;;;;5071733;28;20402;-70
2021/12/25 00:08:33;;;;;;;27.30;12.90;;;;;;;;;;5071571;28;20032;-70
2021/12/25 00:10:59;;;;;;;21.33;10.70;;;;;;;;;;5071798;28;20025;-70
2021/12/25 00:13:26;;;;;;;21.25;10.88;;;;;;;;;;5070968;28;20101;-70
2021/12/25 00:15:52;;;;;;;22.70;10.38;;;;;;;;;;5071454;28;20379;-69
2021/12/25 00:18:20;;;;;;;22.50;11.30;;;;;;;;;;5071676;28;20028;-69
2021/12/25 00:20:46;;;;;;;19.95;11.13;;;;;;;;;;5071686;28;20039;-69
2021/12/25 00:23:12;;;;;;;21.73;10.95;;;;;;;;;;5070531;28;20025;-69
2021/12/25 00:25:43;;;;;;;22.35;10.32;;;;;;;;;;5071805;28;20016;-69
2021/12/25 00:31:01;;;;;;;18.67;10.20;;;;;;;;;;5071739;28;20020;-69
2021/12/25 00:36:03;;;;;;;15.20;8.82;;;;;;;;;;5071458;28;20040;-69
2021/12/25 00:38:31;;;;;;;19.42;9.43;;;;;;;;;;5071379;28;20103;-70
2021/12/25 00:40:57;;;;;;;17.13;9.55;;;;;;;;;;5071405;28;20020;-69
2021/12/25 00:43:23;;;;;;;16.75;8.70;;;;;;;;;;5070492;28;20493;-69
2021/12/25 00:45:49;;;;;;;21.27;9.55;;;;;;;;;;5065274;28;20164;-69
2021/12/25 00:48:15;;;;;;;16.27;9.80;;;;;;;;;;5070031;28;20016;-70
2021/12/25 00:50:41;;;;;;;20.30;10.93;;;;;;;;;;5073576;28;20115;-71
2021/12/25 00:53:07;;;;;;;19.65;10.90;;;;;;;;;;5075688;28;20047;-69
2021/12/25 00:55:33;;;;;;;18.48;10.35;;;;;;;;;;5078000;28;20024;-69
2021/12/25 00:57:59;;;;;;;17.83;9.90;;;;;;;;;;5077882;28;20050;-70
2021/12/25 01:00:25;;;;;;;13.75;7.75;;;;;;;;;;5077846;28;20028;-70
2021/12/25 01:02:51;;;;;;;14.38;8.35;;;;;;;;;;5077149;28;20031;-69
2021/12/25 01:05:17;;;;;;;13.52;8.35;;;;;;;;;;5077630;28;20584;-70
2021/12/25 01:07:44;;;;;;;17.98;8.90;;;;;;;;;;5076459;28;20021;-70
2021/12/25 01:10:14;;;;;;;13.43;8.40;;;;;;;;;;5077690;28;20096;-70
2021/12/25 01:12:54;;;;;;;13.13;8.18;;;;;;;;;;5077382;28;20028;-69
2021/12/25 01:15:26;;;;;;;11.85;7.07;;;;;;;;;;5076375;28;20021;-70
2021/12/25 01:23:40;;;;;;;10.68;5.88;;;;;;;;;;5076654;28;20029;-70
2021/12/25 01:31:30;;;;;;;13.95;7.60;;;;;;;;;;5061860;28;20059;-70
2021/12/25 01:36:41;;;;;;;16.45;8.95;;;;;;;;;;5078026;28;20034;-71
2021/12/25 01:42:07;;;;;;;13.48;8.10;;;;;;;;;;5077299;28;20068;-71
2021/12/25 01:49:54;;;;;;;11.30;7.18;;;;;;;;;;5077315;28;20025;-71
2021/12/25 01:52:30;;;;;;;10.23;5.82;;;;;;;;;;5075692;28;20028;-70
2021/12/25 01:55:00;;;;;;;13.27;6.78;;;;;;;;;;5076570;28;20450;-71
2021/12/25 01:57:26;;;;;;;10.15;6.22;;;;;;;;;;5077329;28;20533;-71
2021/12/25 01:59:52;;;;;;;8.73;5.30;;;;;;;;;;5077089;28;20103;-71
2021/12/25 02:02:18;;;;;;;10.60;5.90;;;;;;;;;;5075649;28;20096;-72
2021/12/25 02:04:44;;;;;;;6.63;4.57;;;;;;;;;;5073333;28;20492;-72
2021/12/25 02:07:10;;;;;;;10.20;5.20;;;;;;;;;;5073736;28;20099;-71
2021/12/25 02:09:36;;;;;;;10.55;5.97;;;;;;;;;;5074024;28;20048;-71
2021/12/25 02:12:02;;;;;;;7.40;4.53;;;;;;;;;;5072502;28;20021;-71
2021/12/25 02:14:29;;;;;;;6.43;4.63;;;;;;;;;;5073232;28;20078;-71
2021/12/25 02:17:02;;;;;;;8.82;5.15;;;;;;;;;;5072691;28;20063;-71
2021/12/25 02:19:41;;;;;;;8.57;5.20;;;;;;;;;;5073840;28;20093;-70
2021/12/25 02:22:09;;;;;;;6.55;4.35;;;;;;;;;;5073491;28;20032;-70
2021/12/25 02:24:38;;;;;;;7.38;5.15;;;;;;;;;;5073015;28;20421;-70
2021/12/25 02:27:05;;;;;;;5.82;4.18;;;;;;;;;;5065816;28;20466;-70
2021/12/25 02:29:31;;;;;;;4.13;3.20;;;;;;;;;;5073679;28;20500;-70
2021/12/25 02:32:01;;;;;;;2.70;2.35;;;;;;;;;;5073314;28;20021;-70
2021/12/25 02:34:27;;;;;;;2.50;2.28;;;;;;;;;;5071265;28;20028;-70
2021/12/25 02:36:53;;;;;;;2.40;2.10;;;;;;;;;;5073530;28;20103;-70
2021/12/25 02:39:19;;;;;;;4.32;1.92;;;;;;;;;;5072354;28;20493;-70
2021/12/25 02:41:45;;;;;;;5.78;1.85;;;;;;;;;;5072262;28;20029;-70
2021/12/25 02:44:11;;;;;;;3.72;1.95;;;;;;;;;;5072132;28;20493;-70
2021/12/25 02:46:37;;;;;;;1.98;1.73;;;;;;;;;;5073281;28;20103;-70
2021/12/25 02:49:03;;;;;;;3.17;2.03;;;;;;;;;;5072950;28;20032;-70
2021/12/25 02:51:29;;;;;;;2.25;1.95;;;;;;;;;;5071715;28;20059;-70
2021/12/25 02:53:55;;;;;;;3.45;1.98;;;;;;;;;;5072343;28;20052;-70
2021/12/25 02:56:21;;;;;;;2.67;1.90;;;;;;;;;;5073009;28;20082;-71
2021/12/25 02:58:47;;;;;;;6.00;1.98;;;;;;;;;;5073162;28;20035;-70
2021/12/25 03:01:15;;;;;;;4.50;2.08;;;;;;;;;;5072752;28;20028;-70
2021/12/25 03:03:41;;;;;;;6.38;1.85;;;;;;;;;;5072007;28;20506;-71
2021/12/25 03:06:08;;;;;;;3.20;1.85;;;;;;;;;;5072559;28;20025;-71
2021/12/25 03:08:35;;;;;;;2.65;1.60;;;;;;;;;;5071628;28;20025;-71
2021/12/25 03:11:03;;;;;;;3.17;1.45;;;;;;;;;;5071419;28;20494;-71
2021/12/25 03:16:14;;;;;;;4.70;1.50;;;;;;;;;;5072915;28;20048;-71
2021/12/25 03:18:46;;;;;;;2.50;1.63;;;;;;;;;;5072880;28;20036;-70
2021/12/25 03:21:12;;;;;;;5.45;1.65;;;;;;;;;;5072705;28;20101;-71
2021/12/25 03:23:41;;;;;;;2.78;1.33;;;;;;;;;;5071783;28;20154;-72
2021/12/25 03:26:07;;;;;;;4.22;1.42;;;;;;;;;;5070682;28;20020;-71
2021/12/25 03:28:37;;;;;;;3.15;0.88;;;;;;;;;;5071893;28;20143;-72
2021/12/25 03:31:06;;;;;;;4.38;1.00;;;;;;;;;;5072172;28;20397;-71
2021/12/25 03:33:32;;;;;;;2.22;1.10;;;;;;;;;;5071699;28;20025;-72
2021/12/25 03:35:58;;;;;;;1.95;1.10;;;;;;;;;;5070590;28;20028;-71
2021/12/25 03:38:26;;;;;;;1.60;0.95;;;;;;;;;;5070900;28;20028;-71
2021/12/25 03:40:52;;;;;;;3.17;1.05;;;;;;;;;;5071929;28;20024;-71
2021/12/25 03:43:19;;;;;;;2.70;1.75;;;;;;;;;;5071382;28;20033;-71
2021/12/25 03:45:45;;;;;;;2.92;1.80;;;;;;;;;;5070689;28;20044;-71
2021/12/25 03:58:33;;;;;;;4.88;2.85;;;;;;;;;;5071966;28;20039;-71
2021/12/25 04:01:11;;;;;;;5.53;2.70;;;;;;;;;;5071915;28;20028;-70
2021/12/25 04:04:00;;;;;;;3.55;2.70;;;;;;;;;;5071307;28;20051;-71
2021/12/25 04:06:25;;;;;;;7.57;4.22;;;;;;;;;;5071962;28;20024;-71
2021/12/25 04:08:52;;;;;;;6.60;3.20;;;;;;;;;;5072000;28;20116;-71
2021/12/25 04:11:27;;;;;;;6.00;3.90;;;;;;;;;;5070334;28;20572;-71
2021/12/25 04:13:53;;;;;;;6.15;3.13;;;;;;;;;;5071293;28;20086;-71
2021/12/25 04:16:19;;;;;;;10.45;3.88;;;;;;;;;;5071382;28;20021;-71
2021/12/25 04:18:49;;;;;;;8.00;4.00;;;;;;;;;;5071501;28;20057;-71
2021/12/25 04:21:15;;;;;;;8.00;4.18;;;;;;;;;;5071245;28;20047;-70
2021/12/25 04:23:43;;;;;;;9.20;4.72;;;;;;;;;;5070628;28;20068;-71
2021/12/25 04:26:10;;;;;;;7.65;4.63;;;;;;;;;;5070550;28;20027;-72
2021/12/25 05:04:18;;;;;;;;;;;;;;;;;;5034432;28;20077;-76
2021/12/25 05:06:44;;;;;;;;;;;;;;;;;;5042379;28;19909;-75
2021/12/25 05:09:10;;;;;;;10.38;5.82;;;;;;;;;;5042304;28;20366;-75
2021/12/25 05:11:36;;;;;;;11.13;5.85;;;;;;;;;;5042140;28;20025;-75
2021/12/25 05:14:02;;;;;;;9.73;5.45;;;;;;;;;;5035137;28;20163;-75
2021/12/25 05:16:28;;;;;;;11.95;5.80;;;;;;;;;;5031471;28;20060;-75
2021/12/25 05:18:54;;;;;;;11.32;6.07;;;;;;;;;;5030134;28;20388;-76
2021/12/25 05:21:20;;;;;;;13.05;6.15;;;;;;;;;;5031712;28;20029;-75
2021/12/25 05:23:48;;;;;;;8.77;5.45;;;;;;;;;;5030849;28;20033;-76
2021/12/25 05:26:14;;;;;;;9.25;4.53;;;;;;;;;;5031560;28;20464;-77
2021/12/25 05:28:42;;;;;;;9.60;5.15;;;;;;;;;;5017252;28;20465;-77
2021/12/25 05:31:10;;;;;;;18.08;6.80;;;;;;;;;;5029954;28;20100;-76
2021/12/25 05:33:37;;;;;;;9.77;4.95;;;;;;;;;;5030251;28;20059;-76
2021/12/25 05:36:03;;;;;;;8.25;4.63;;;;;;;;;;5031538;28;20030;-76
2021/12/25 05:38:29;;;;;;;9.73;4.50;;;;;;;;;;5034708;28;20087;-75
2021/12/25 05:40:55;;;;;;;7.50;4.45;;;;;;;;;;5034856;28;20026;-75
2021/12/25 05:43:22;;;;;;;8.02;4.65;;;;;;;;;;5033988;28;20395;-75
2021/12/25 05:45:48;;;;;;;8.38;4.65;;;;;;;;;;5034462;28;20057;-75
2021/12/25 05:48:14;;;;;;;8.57;4.20;;;;;;;;;;5033182;28;20068;-75
2021/12/25 05:50:40;;;;;;;9.57;4.30;;;;;;;;;;5034695;28;20042;-75
2021/12/25 05:53:06;;;;;;;7.65;4.47;;;;;;;;;;5033478;28;20037;-76
2021/12/25 05:55:33;;;;;;;5.72;3.65;;;;;;;;;;5034459;28;20052;-74
2021/12/25 05:58:02;;;;;;;8.05;4.07;;;;;;;;;;5033055;28;20072;-75
2021/12/25 06:00:28;;;;;;;7.32;4.38;;;;;;;;;;5034219;28;20087;-76
2021/12/25 06:02:54;;;;;;;8.45;4.35;;;;;;;;;;5032503;28;20060;-77
2021/12/25 06:05:20;;;;;;;13.88;5.50;;;;;;;;;;5039992;28;20029;-75
2021/12/25 06:07:46;;;;;;;8.20;4.60;;;;;;;;;;5034135;28;20044;-75
2021/12/25 06:10:12;;;;;;;8.43;4.68;;;;;;;;;;5034423;28;20049;-75
2021/12/25 06:12:39;;;;;;;10.70;5.10;;;;;;;;;;5033941;28;20104;-77
2021/12/25 06:15:06;;;;;;;6.45;4.25;;;;;;;;;;5033037;28;20029;-75
2021/12/25 06:17:32;;;;;;;8.02;5.03;;;;;;;;;;5032734;28;20109;-75
2021/12/25 06:19:58;;;;;;;12.38;5.55;;;;;;;;;;5034209;28;20026;-75
2021/12/25 06:22:24;;;;;;;12.80;4.95;;;;;;;;;;5033828;28;20384;-75
2021/12/25 06:24:50;;;;;;;7.38;4.85;;;;;;;;;;5033240;28;20036;-76
2021/12/25 06:27:20;;;;;;;9.25;5.15;;;;;;;;;;5029406;28;20022;-74
2021/12/25 06:29:47;;;;;;;8.38;4.32;;;;;;;;;;5021236;28;20563;-76
2021/12/25 06:32:15;;;;;;;8.75;4.90;;;;;;;;;;5034004;28;20048;-76
2021/12/25 06:34:41;;;;;;;7.13;4.85;;;;;;;;;;5033405;28;20033;-75
2021/12/25 06:37:07;;;;;;;8.38;4.20;;;;;;;;;;5033322;28;20041;-75
2021/12/25 06:39:33;;;;;;;9.57;4.70;;;;;;;;;;5032407;28;20108;-74
2021/12/25 06:41:59;;;;;;;6.95;4.97;;;;;;;;;;5034336;28;20057;-74
2021/12/25 06:44:27;;;;;;;8.13;4.40;;;;;;;;;;5031352;28;20037;-75
2021/12/25 06:46:53;;;;;;;6.05;4.53;;;;;;;;;;5032600;28;20084;-75
2021/12/25 06:49:19;;;;;;;6.80;4.53;;;;;;;;;;5017541;28;20021;-74
2021/12/25 06:51:45;;;;;;;8.52;4.18;;;;;;;;;;5033452;28;20030;-74
2021/12/25 06:54:11;;;;;;;8.55;4.53;;;;;;;;;;5033156;28;20041;-75
2021/12/25 06:56:37;;;;;;;9.88;4.28;;;;;;;;;;5032192;28;20490;-75
2021/12/25 06:59:03;;;;;;;7.10;4.65;;;;;;;;;;5033711;28;20040;-74
2021/12/25 07:01:29;;;;;;;9.07;4.65;;;;;;;;;;5032464;28;20022;-74
2021/12/25 07:03:55;;;;;;;7.93;4.38;;;;;;;;;;5031740;28;20032;-75
2021/12/25 07:06:24;;;;;;;8.07;4.30;;;;;;;;;;5032162;28;20027;-74
2021/12/25 07:08:50;;;;;;;6.90;5.00;;;;;;;;;;5034042;28;20464;-74
2021/12/25 07:11:17;;;;;;;8.43;4.75;;;;;;;;;;5032148;28;20022;-74
2021/12/25 07:13:45;;;;;;;7.00;4.60;;;;;;;;;;5032822;28;20442;-74
2021/12/25 07:16:12;;;;;;;8.00;4.95;;;;;;;;;;5028099;28;20048;-75
2021/12/25 07:18:38;;;;;;;8.98;5.18;;;;;;;;;;5032659;28;20095;-74
2021/12/25 07:21:04;;;;;;;8.30;4.25;;;;;;;;;;5028859;28;20049;-74
2021/12/25 07:23:31;;;;;;;6.53;4.32;;;;;;;;;;5030828;28;20028;-74
2021/12/25 07:25:57;;;;;;;7.80;4.68;;;;;;;;;;5032987;28;20033;-74
2021/12/25 07:28:23;;;;;;;6.53;4.20;;;;;;;;;;5032296;28;20032;-74
2021/12/25 07:30:52;;;;;;;7.75;4.00;;;;;;;;;;5033136;28;20025;-74
2021/12/25 07:33:21;;;;;;;9.15;5.13;;;;;;;;;;5032282;28;20029;-74
2021/12/25 07:35:47;;;;;;;8.02;4.47;;;;;;;;;;5032591;28;20040;-74
2021/12/25 07:38:15;;;;;;;7.40;3.53;;;;;;;;;;5032423;28;20403;-74
2021/12/25 07:40:41;;;;;;;5.05;3.17;;;;;;;;;;5031237;28;20036;-75
2021/12/25 07:43:07;;;;;;;4.05;2.08;;;;;;;;;;5031608;28;20025;-74
2021/12/25 07:45:33;;;;;;;8.38;2.22;;;;;;;;;;5031151;28;20018;-75
2021/12/25 07:48:02;;;;;;;2.53;1.90;;;;;;;;;;5027815;28;20539;-74
2021/12/25 07:50:30;;;;;;;5.43;2.47;;;;;;;;;;5031969;28;20084;-73
2021/12/25 07:52:56;;;;;;;3.70;1.92;;;;;;;;;;5019999;28;20488;-75
2021/12/25 07:55:22;;;;;;;5.50;2.17;;;;;;;;;;5026643;28;20022;-68
2021/12/25 07:57:48;;;;;;;2.90;1.42;;;;;;;;;;5015651;28;20030;-71
2021/12/25 08:00:15;;;;;;;2.13;1.52;;;;;;;;;;5031849;28;20026;-72
2021/12/25 08:02:42;;;;;;;3.17;2.00;;;;;;;;;;5029879;28;20438;-72
2021/12/25 08:05:08;;;;;;;6.13;2.50;;;;;;;;;;5031213;28;20032;-73
2021/12/25 08:07:34;;;;;;;4.28;2.38;;;;;;;;;;5031202;28;20033;-71
2021/12/25 08:10:13;;;;;;;4.55;2.30;;;;;;;;;;5030417;28;20045;-71
2021/12/25 08:12:40;;;;;;;5.35;1.55;;;;;;;;;;5030458;28;20033;-70
2021/12/25 08:15:06;;;;;;;4.65;2.28;;;;;;;;;;5028651;28;23012;-71
2021/12/25 08:17:32;;;;;;;4.88;1.55;;;;;;;;;;5028373;28;20112;-71
2021/12/25 08:19:58;;;;;;;3.53;1.48;;;;;;;;;;5030419;28;20141;-71
2021/12/25 08:22:24;;;;;;;4.38;1.52;;;;;;;;;;5023263;28;20491;-70
2021/12/25 08:24:51;;;;;;;2.55;1.52;;;;;;;;;;5021715;28;20468;-71
2021/12/25 08:27:17;;;;;;;2.35;1.30;;;;;;;;;;5030142;28;20185;-71
2021/12/25 08:29:43;;;;;;;4.38;2.10;;;;;;;;;;5031822;28;20037;-70
2021/12/25 08:32:09;;;;;;;4.18;1.23;;;;;;;;;;5031801;28;20032;-71
2021/12/25 08:34:37;;;;;;;7.85;1.73;;;;;;;;;;5029970;28;20029;-71
2021/12/25 08:37:03;;;;;;;4.30;1.52;;;;;;;;;;5028204;28;20040;-71
2021/12/25 08:39:29;;;;;;;4.35;1.70;;;;;;;;;;5029575;28;20399;-71
2021/12/25 08:42:01;;;;;;;3.45;1.52;;;;;;;;;;5029411;28;20244;-73
2021/12/25 08:44:40;;;;;;;1.55;1.00;;;;;;;;;;5026374;28;20037;-68
2021/12/25 08:47:10;;;;;;;3.13;1.55;;;;;;;;;;5029128;28;20387;-68
2021/12/25 08:49:37;;;;;;;3.38;1.60;;;;;;;;;;5039261;28;20013;-68
2021/12/25 08:52:07;;;;;;;5.45;1.33;;;;;;;;;;5041093;28;20029;-69
2021/12/25 08:54:35;;;;;;;3.20;1.45;;;;;;;;;;5031361;28;20157;-69
2021/12/25 08:57:01;;;;;;;4.55;1.45;;;;;;;;;;5028165;28;20026;-69
2021/12/25 08:59:28;;;;;;;4.68;1.80;;;;;;;;;;5030604;28;20418;-71
2021/12/25 09:01:54;;;;;;;7.03;1.60;;;;;;;;;;5030197;28;20029;-70
2021/12/25 09:04:20;;;;;;;6.15;2.10;;;;;;;;;;5029473;28;20542;-70
2021/12/25 09:06:46;;;;;;;4.05;1.92;;;;;;;;;;5031050;28;20053;-71
2021/12/25 09:09:12;;;;;;;3.35;1.85;;;;;;;;;;5029818;28;20111;-70
2021/12/25 09:11:42;;;;;;;3.58;1.65;;;;;;;;;;5030084;28;20155;-71
2021/12/25 09:14:08;;;;;;;6.80;1.90;;;;;;;;;;5033967;28;20087;-70
2021/12/25 09:16:34;;;;;;;2.85;1.52;;;;;;;;;;5033817;28;20024;-71
2021/12/25 09:19:00;;;;;;;3.03;1.65;;;;;;;;;;5032718;28;20033;-70
2021/12/25 09:21:26;;;;;;;4.32;1.45;;;;;;;;;;5034238;28;20034;-71
2021/12/25 09:23:52;;;;;;;3.20;2.05;;;;;;;;;;5033211;28;20083;-72
2021/12/25 09:26:19;;;;;;;3.50;1.60;;;;;;;;;;5036745;28;20068;-72
2021/12/25 09:28:45;;;;;;;2.05;1.50;;;;;;;;;;5042684;28;20033;-72
2021/12/25 09:31:11;;;;;;;5.22;2.05;;;;;;;;;;5034853;28;20112;-71
2021/12/25 09:33:37;;;;;;;4.72;1.63;;;;;;;;;;5033858;28;20626;-71
2021/12/25 09:36:04;;;;;;;3.13;1.92;;;;;;;;;;5034549;28;20034;-72
2021/12/25 09:38:30;;;;;;;3.78;1.67;;;;;;;;;;5034667;28;20391;-71
2021/12/25 09:40:57;;;;;;;2.38;1.50;;;;;;;;;;5034468;28;20087;-67
2021/12/25 09:43:23;;;;;;;3.72;2.00;;;;;;;;;;5033026;28;20041;-67
2021/12/25 09:45:49;;;;;;;3.60;1.80;;;;;;;;;;5033034;28;20018;-67
2021/12/25 09:48:15;;;;;;;4.82;2.58;;;;;;;;;;5034324;28;20028;-67
2021/12/25 09:50:42;;;;;;;2.88;1.75;;;;;;;;;;5034510;28;20026;-67
2021/12/25 09:53:08;;;;;;;4.90;2.63;;;;;;;;;;5032363;28;20041;-67
2021/12/25 09:55:35;;;;;;;4.72;1.77;;;;;;;;;;5033245;28;20492;-67
2021/12/25 09:58:01;;;;;;;5.50;2.15;;;;;;;;;;5034347;28;20029;-67
2021/12/25 10:00:27;;;;;;;4.68;2.47;;;;;;;;;;5034060;28;20105;-67
2021/12/25 10:02:57;;;;;;;3.60;1.70;;;;;;;;;;5033274;28;20040;-67
2021/12/25 10:05:37;;;;;;;4.10;1.92;;;;;;;;;;5034007;28;20029;-67
2021/12/25 10:08:07;;;;;;;5.47;2.03;;;;;;;;;;5018180;28;20071;-67
2021/12/25 10:10:37;;;;;;;6.85;3.00;;;;;;;;;;5033640;28;20109;-67
2021/12/25 10:13:03;;;;;;;3.30;1.77;;;;;;;;;;5032781;28;20026;-68
2021/12/25 10:15:30;;;;;;;5.72;2.10;;;;;;;;;;5034288;28;20036;-67
2021/12/25 10:17:57;;;;;;;6.53;2.10;;;;;;;;;;5033771;28;20097;-68
2021/12/25 10:20:33;;;;;;;5.53;1.98;;;;;;;;;;5033786;28;20032;-68
2021/12/25 10:23:08;;;;;;;3.65;1.45;;;;;;;;;;5032036;28;20060;-65
2021/12/25 10:25:44;;;;;;;5.50;1.45;;;;;;;;;;5032560;28;20034;-66
2021/12/25 10:28:10;;;;;;;4.55;1.52;;;;;;;;;;5034247;28;20368;-67
2021/12/25 10:30:55;;;;;;;5.28;1.30;;;;;;;;;;5034035;28;20068;-66
2021/12/25 10:33:27;;;;;;;4.45;1.58;;;;;;;;;;5032876;28;20597;-66
2021/12/25 10:35:53;;;;;;;4.35;1.67;;;;;;;;;;5033864;28;20032;-66
2021/12/25 10:38:22;;;;;;;3.17;2.00;;;;;;;;;;5033589;28;20105;-66
2021/12/25 10:40:48;;;;;;;5.45;1.85;;;;;;;;;;5033168;28;20030;-67
2021/12/25 10:43:21;;;;;;;3.35;1.65;;;;;;;;;;5030956;28;20022;-66
2021/12/25 10:46:00;;;;;;;4.65;1.60;;;;;;;;;;5018798;28;20133;-66
2021/12/25 10:48:28;;;;;;;2.97;2.00;;;;;;;;;;5033286;28;20028;-67
2021/12/25 10:50:54;;;;;;;5.13;1.92;;;;;;;;;;5029888;28;20390;-67
2021/12/25 10:53:28;;;;;;;5.85;1.70;;;;;;;;;;5042486;23;20115;-70
2021/12/25 10:56:06;;;;;;;3.53;1.60;;;;;;;;;;5009041;28;20038;-71
2021/12/25 10:58:32;;;;;;;5.85;2.00;;;;;;;;;;5013388;28;20506;-70
2021/12/25 11:00:59;;;;;;;2.17;1.58;;;;;;;;;;5013089;28;20403;-69
2021/12/25 11:03:36;;;;;;;2.05;1.25;;;;;;;;;;5011486;28;20045;-70
2021/12/25 11:06:04;;;;;;;3.42;1.50;;;;;;;;;;4997683;28;20088;-70
2021/12/25 11:08:31;;;;;;;2.03;1.50;;;;;;;;;;5013226;28;20022;-70
2021/12/25 11:11:02;;;;;;;3.47;1.50;;;;;;;;;;5013372;28;20488;-71
2021/12/25 11:13:29;;;;;;;6.95;2.00;;;;;;;;;;5012541;28;20045;-70
2021/12/25 11:16:03;;;;;;;3.78;1.50;;;;;;;;;;5013336;28;20032;-71
2021/12/25 11:18:29;;;;;;;4.50;1.90;;;;;;;;;;5028540;28;20026;-70
2021/12/25 11:20:56;;;;;;;2.00;1.30;;;;;;;;;;5013015;28;20140;-70
2021/12/25 11:23:22;;;;;;;5.30;1.80;;;;;;;;;;5012524;28;20030;-68
2021/12/25 11:25:48;;;;;;;2.13;1.65;;;;;;;;;;5013131;28;20033;-69
2021/12/25 11:28:18;;;;;;;4.38;2.13;;;;;;;;;;5013004;28;20029;-70
2021/12/25 11:30:45;;;;;;;4.88;2.08;;;;;;;;;;5013226;28;20026;-70
2021/12/25 11:33:12;;;;;;;3.70;1.95;;;;;;;;;;5012134;28;20022;-70
2021/12/25 11:35:38;;;;;;;5.88;2.33;;;;;;;;;;5012181;28;20091;-70
2021/12/25 11:38:05;;;;;;;8.35;2.28;;;;;;;;;;5012547;28;20053;-68
2021/12/25 11:40:34;;;;;;;5.30;2.33;;;;;;;;;;5012558;28;20036;-70
2021/12/25 11:43:03;;;;;;;1.98;1.60;;;;;;;;;;5011467;28;20460;-68
2021/12/25 11:45:36;;;;;;;5.63;2.22;;;;;;;;;;5028206;28;20030;-71
2021/12/25 11:48:12;;;;;;;6.28;2.22;;;;;;;;;;5012564;28;20306;-68
2021/12/25 11:50:41;;;;;;;5.55;2.15;;;;;;;;;;5027673;28;20117;-70
2021/12/25 11:53:20;;;;;;;6.90;3.30;;;;;;;;;;5011454;28;20038;-70
2021/12/25 11:56:16;;;;;;;3.83;2.03;;;;;;;;;;5010815;28;20025;-70
2021/12/25 11:58:42;;;;;;;4.18;2.40;;;;;;;;;;5001151;28;20033;-68
2021/12/25 12:01:26;;;;;;;3.25;2.60;;;;;;;;;;5012253;28;20061;-70
2021/12/25 12:04:13;;;;;;;5.50;2.65;;;;;;;;;;5011218;28;20488;-70
2021/12/25 12:06:46;;;;;;;5.10;2.30;;;;;;;;;;5027223;28;20088;-70
2021/12/25 12:09:15;;;;;;;5.50;2.80;;;;;;;;;;5011799;28;20488;-70
2021/12/25 12:11:42;;;;;;;3.70;1.92;;;;;;;;;;5012049;28;20164;-70
2021/12/25 12:14:22;;;;;;;10.50;3.88;;;;;;;;;;5026666;28;20514;-70
2021/12/25 12:16:52;;;;;;;6.03;3.08;;;;;;;;;;5012073;28;20120;-70
2021/12/25 12:19:35;;;;;;;4.78;3.25;;;;;;;;;;5011976;28;20033;-69
2021/12/25 12:22:01;;;;;;;5.50;2.15;;;;;;;;;;4995977;28;20024;-69
2021/12/25 12:26:59;;;;;;;4.13;2.30;;;;;;;;;;5011767;28;20555;-71
2021/12/25 12:29:37;;;;;;;5.00;2.78;;;;;;;;;;5011585;28;20117;-69
2021/12/25 12:32:04;;;;;;;5.05;2.15;;;;;;;;;;4995467;28;20080;-69
2021/12/25 12:34:30;;;;;;;3.65;2.60;;;;;;;;;;5001218;28;20057;-71
2021/12/25 12:37:14;;;;;;;5.65;2.42;;;;;;;;;;5011543;28;20081;-70
2021/12/25 12:39:57;;;;;;;3.85;2.25;;;;;;;;;;5011483;28;20041;-70
2021/12/25 12:42:46;;;;;;;5.75;3.15;;;;;;;;;;5026449;28;20026;-68
2021/12/25 12:45:15;;;;;;;6.53;2.80;;;;;;;;;;5011599;28;20033;-69
2021/12/25 12:47:41;;;;;;;4.50;2.60;;;;;;;;;;5010640;28;20030;-69
2021/12/25 12:50:11;;;;;;;3.85;2.35;;;;;;;;;;5011586;28;20022;-69
2021/12/25 12:52:40;;;;;;;4.50;2.58;;;;;;;;;;5011135;28;20030;-68
2021/12/25 12:55:11;;;;;;;4.75;2.65;;;;;;;;;;5009508;28;20041;-70
2021/12/25 12:57:38;;;;;;;4.97;2.55;;;;;;;;;;5011204;28;20017;-69
2021/12/25 13:00:04;;;;;;;5.00;2.25;;;;;;;;;;5026547;28;20030;-69
2021/12/25 13:02:31;;;;;;;3.88;1.88;;;;;;;;;;5011294;28;20056;-70
2021/12/25 13:04:59;;;;;;;4.68;2.55;;;;;;;;;;5010606;28;20033;-69
2021/12/25 13:07:27;;;;;;;5.82;2.78;;;;;;;;;;5011428;28;20026;-69
2021/12/25 13:09:58;;;;;;;4.70;2.13;;;;;;;;;;5011346;28;20053;-69
2021/12/25 13:12:58;;;;;;;5.63;2.28;;;;;;;;;;5011663;28;20060;-69
2021/12/25 13:15:25;;;;;;;4.97;2.70;;;;;;;;;;5008773;28;20534;-69
2021/12/25 13:18:00;;;;;;;5.30;2.05;;;;;;;;;;5011163;28;20504;-69
2021/12/25 13:20:33;;;;;;;5.72;2.67;;;;;;;;;;5012022;28;20072;-70
2021/12/25 13:23:00;;;;;;;5.63;2.25;;;;;;;;;;5010551;28;20026;-68
2021/12/25 13:25:26;;;;;;;3.78;2.20;;;;;;;;;;5026132;28;20022;-69
2021/12/25 13:27:59;;;;;;;7.25;2.25;;;;;;;;;;5011131;28;20101;-69
2021/12/25 13:30:26;;;;;;;7.43;3.80;;;;;;;;;;5011944;28;20080;-71
2021/12/25 13:32:52;;;;;;;4.70;2.67;;;;;;;;;;5011511;28;20502;-69
2021/12/25 13:35:21;;;;;;;7.15;2.72;;;;;;;;;;5011523;28;20037;-69
2021/12/25 13:37:55;;;;;;;5.10;2.35;;;;;;;;;;5011587;28;20037;-70
2021/12/25 13:40:21;;;;;;;5.15;2.45;;;;;;;;;;5011656;28;20034;-70
2021/12/25 13:42:47;;;;;;;4.13;2.28;;;;;;;;;;5010926;28;20384;-70
2021/12/25 13:45:13;;;;;;;4.28;2.70;;;;;;;;;;5026221;28;20053;-70
2021/12/25 13:47:39;;;;;;;7.28;2.65;;;;;;;;;;5011253;28;20034;-70
2021/12/25 13:50:07;;;;;;;5.50;2.92;;;;;;;;;;5011129;28;20084;-68
2021/12/25 13:52:48;;;;;;;3.05;2.25;;;;;;;;;;5011003;28;20026;-69
2021/12/25 13:55:17;;;;;;;7.50;2.85;;;;;;;;;;5010996;28;20502;-70
2021/12/25 13:57:45;;;;;;;2.78;2.03;;;;;;;;;;4995526;28;20038;-70
2021/12/25 14:00:31;;;;;;;7.35;2.50;;;;;;;;;;5014913;28;20510;-69
2021/12/25 14:02:59;;;;;;;5.80;2.22;;;;;;;;;;5013846;28;20021;-68
2021/12/25 14:05:27;;;;;;;4.68;3.05;;;;;;;;;;5014677;28;20030;-70
2021/12/25 14:07:53;;;;;;;4.93;3.30;;;;;;;;;;5015827;28;20326;-69
2021/12/25 14:10:21;;;;;;;6.22;2.50;;;;;;;;;;5016287;28;20017;-69
2021/12/25 14:12:49;;;;;;;10.05;3.15;;;;;;;;;;5029526;28;20022;-70
2021/12/25 14:15:16;;;;;;;8.07;2.80;;;;;;;;;;5029151;28;20476;-70
2021/12/25 14:17:44;;;;;;;6.88;3.25;;;;;;;;;;5014284;28;20041;-69
2021/12/25 14:20:10;;;;;;;6.80;3.38;;;;;;;;;;5014592;28;20045;-70
2021/12/25 14:22:36;;;;;;;8.52;3.80;;;;;;;;;;5013837;28;20021;-70
2021/12/25 14:25:02;;;;;;;8.88;3.58;;;;;;;;;;5013491;28;20033;-70
2021/12/25 14:27:29;;;;;;;5.93;3.22;;;;;;;;;;5013992;28;20057;-68
2021/12/25 14:30:04;;;;;;;5.85;3.00;;;;;;;;;;5012739;28;20030;-70
2021/12/25 14:32:31;;;;;;;8.75;3.72;;;;;;;;;;5014124;28;20049;-69
2021/12/25 14:34:58;;;;;;;10.10;4.93;;;;;;;;;;5012776;28;20116;-69
2021/12/25 14:37:32;;;;;;;8.80;3.78;;;;;;;;;;5013983;28;20496;-69
2021/12/25 14:40:04;;;;;;;7.22;3.65;;;;;;;;;;5013781;28;20030;-70
2021/12/25 14:42:34;;;;;;;7.28;3.45;;;;;;;;;;5028869;28;20095;-70
2021/12/25 14:45:00;;;;;;;7.22;3.28;;;;;;;;;;5012821;28;20033;-68
2021/12/25 14:47:26;;;;;;;6.25;3.50;;;;;;;;;;5013623;28;20026;-69
2021/12/25 14:49:52;;;;;;;7.80;3.80;;;;;;;;;;5013634;28;20036;-69
2021/12/25 14:52:19;;;;;;;8.77;4.45;;;;;;;;;;5013715;28;20025;-71
2021/12/25 14:54:45;;;;;;;7.45;3.42;;;;;;;;;;5012849;28;20109;-70
2021/12/25 14:57:24;;;;;;;6.03;3.58;;;;;;;;;;5012219;28;20042;-69
2021/12/25 14:59:50;;;;;;;8.35;3.67;;;;;;;;;;5013659;28;20033;-70
2021/12/25 15:02:21;;;;;;;6.95;3.50;;;;;;;;;;5028409;28;20022;-69
2021/12/25 15:04:47;;;;;;;;;;;;;;;;;;5012917;28;20033;-70
2021/12/25 15:07:14;;;;;;;13.05;3.75;;;;;;;;;;5013392;28;19967;-69
2021/12/25 15:09:40;;;;;;;6.97;3.55;;;;;;;;;;5027638;28;20022;-69
2021/12/25 15:12:15;;;;;;;11.23;3.78;;;;;;;;;;5028285;28;20018;-69
2021/12/25 15:14:42;;;;;;;6.40;3.38;;;;;;;;;;5012217;28;20432;-70
2021/12/25 15:17:09;;;;;;;10.80;3.42;;;;;;;;;;5013274;28;20030;-68
2021/12/25 15:19:37;;;;;;;6.25;3.42;;;;;;;;;;5013091;28;20021;-69
2021/12/25 15:22:05;;;;;;;8.43;3.25;;;;;;;;;;5028434;28;20072;-69
2021/12/25 15:24:31;;;;;;;10.27;3.53;;;;;;;;;;5012565;28;20100;-70
2021/12/25 15:27:02;;;;;;;8.95;4.30;;;;;;;;;;5013434;28;20026;-69
2021/12/25 15:29:36;;;;;;;5.15;2.75;;;;;;;;;;5013365;28;20026;-69
2021/12/25 15:32:04;;;;;;;5.47;3.60;;;;;;;;;;5028949;28;20022;-69
2021/12/25 15:34:30;;;;;;;7.57;3.85;;;;;;;;;;5012447;28;20026;-70
2021/12/25 15:36:56;;;;;;;9.60;4.45;;;;;;;;;;5012790;28;20030;-69
2021/12/25 15:39:24;;;;;;;7.95;3.75;;;;;;;;;;5012923;28;20026;-69
2021/12/25 15:41:51;;;;;;;11.77;4.25;;;;;;;;;;5012545;28;20327;-69
2021/12/25 15:44:19;;;;;;;8.35;3.78;;;;;;;;;;5003052;28;20030;-70
2021/12/25 15:46:45;;;;;;;8.13;3.70;;;;;;;;;;5010630;28;20033;-69
2021/12/25 15:49:11;;;;;;;8.77;4.55;;;;;;;;;;5014768;28;20019;-68
2021/12/25 15:51:37;;;;;;;10.73;4.30;;;;;;;;;;5008848;28;20018;-70
2021/12/25 15:54:04;;;;;;;12.00;5.40;;;;;;;;;;5011644;28;20033;-69
2021/12/25 15:56:30;;;;;;;10.73;4.72;;;;;;;;;;5012473;28;20491;-70
2021/12/25 15:58:58;;;;;;;7.68;4.60;;;;;;;;;;5012576;28;20088;-69
2021/12/25 16:01:24;;;;;;;10.05;4.50;;;;;;;;;;5012735;28;20036;-70
2021/12/25 16:03:50;;;;;;;10.88;5.25;;;;;;;;;;5025462;28;20109;-69
2021/12/25 16:06:17;;;;;;;8.90;5.07;;;;;;;;;;5027590;28;20033;-69